sensor_id;sensor_type;location;lat;lon;timestamp;P1;durP1;ratioP1;P2;durP2;ratioP2
43114;SDS011;28727;50.068;14.452;2023-08-06T00:01:23;643.45;;;583.95;;
43114;SDS011;28727;50.068;14.452;2023-08-06T00:03:58;637.55;;;578.08;;
43114;SDS011;28727;50.068;14.452;2023-08-06T00:06:31;643.75;;;584.20;;
43114;SDS011;28727;50.068;14.452;2023-08-06T00:09:07;642.30;;;582.90;;
43114;SDS011;28727;50.068;14.452;2023-08-06T00:11:39;643.60;;;584.05;;
43114;SDS011;28727;50.068;14.452;2023-08-06T00:14:13;647.97;;;588.22;;
43114;SDS011;28727;50.068;14.452;2023-08-06T00:16:46;641.97;;;582.50;;
43114;SDS011;28727;50.068;14.452;2023-08-06T00:19:18;642.95;;;583.25;;
43114;SDS011;28727;50.068;14.452;2023-08-06T00:21:50;648.05;;;588.28;;
43114;SDS011;28727;50.068;14.452;2023-08-06T00:24:22;639.67;;;580.33;;
43114;SDS011;28727;50.068;14.452;2023-08-06T00:26:56;649.10;;;589.38;;
43114;SDS011;28727;50.068;14.452;2023-08-06T00:29:29;650.13;;;590.13;;
43114;SDS011;28727;50.068;14.452;2023-08-06T00:32:01;641.75;;;582.20;;
43114;SDS011;28727;50.068;14.452;2023-08-06T00:34:33;643.55;;;583.92;;
43114;SDS011;28727;50.068;14.452;2023-08-06T00:37:06;637.80;;;578.53;;
43114;SDS011;28727;50.068;14.452;2023-08-06T00:39:38;651.45;;;591.67;;
43114;SDS011;28727;50.068;14.452;2023-08-06T00:42:10;643.25;;;583.70;;
43114;SDS011;28727;50.068;14.452;2023-08-06T00:44:43;637.42;;;578.08;;
43114;SDS011;28727;50.068;14.452;2023-08-06T00:47:14;641.75;;;582.25;;
43114;SDS011;28727;50.068;14.452;2023-08-06T00:49:47;640.10;;;580.58;;
43114;SDS011;28727;50.068;14.452;2023-08-06T00:52:19;642.47;;;582.83;;
43114;SDS011;28727;50.068;14.452;2023-08-06T00:54:52;636.67;;;577.33;;
43114;SDS011;28727;50.068;14.452;2023-08-06T00:57:24;635.42;;;576.22;;
43114;SDS011;28727;50.068;14.452;2023-08-06T00:59:59;645.80;;;586.00;;
43114;SDS011;28727;50.068;14.452;2023-08-06T01:02:31;638.10;;;578.80;;
43114;SDS011;28727;50.068;14.452;2023-08-06T01:05:03;635.17;;;576.25;;
43114;SDS011;28727;50.068;14.452;2023-08-06T01:10:40;636.55;;;577.00;;
43114;SDS011;28727;50.068;14.452;2023-08-06T01:16:18;637.25;;;578.00;;
43114;SDS011;28727;50.068;14.452;2023-08-06T01:18:52;638.15;;;578.70;;
43114;SDS011;28727;50.068;14.452;2023-08-06T01:21:25;636.88;;;577.55;;
43114;SDS011;28727;50.068;14.452;2023-08-06T01:23:57;638.08;;;578.92;;
43114;SDS011;28727;50.068;14.452;2023-08-06T01:26:30;628.30;;;569.42;;
43114;SDS011;28727;50.068;14.452;2023-08-06T01:31:56;639.10;;;579.85;;
43114;SDS011;28727;50.068;14.452;2023-08-06T01:34:31;637.85;;;578.63;;
43114;SDS011;28727;50.068;14.452;2023-08-06T01:37:05;639.72;;;580.35;;
43114;SDS011;28727;50.068;14.452;2023-08-06T01:39:39;630.80;;;571.45;;
43114;SDS011;28727;50.068;14.452;2023-08-06T01:42:14;645.08;;;585.28;;
43114;SDS011;28727;50.068;14.452;2023-08-06T01:44:45;634.55;;;575.60;;
43114;SDS011;28727;50.068;14.452;2023-08-06T01:47:19;635.30;;;576.00;;
43114;SDS011;28727;50.068;14.452;2023-08-06T01:49:51;634.85;;;575.60;;
43114;SDS011;28727;50.068;14.452;2023-08-06T01:52:23;642.58;;;582.92;;
43114;SDS011;28727;50.068;14.452;2023-08-06T01:54:55;639.85;;;580.25;;
43114;SDS011;28727;50.068;14.452;2023-08-06T01:57:27;637.85;;;578.53;;
43114;SDS011;28727;50.068;14.452;2023-08-06T01:59:59;641.42;;;581.97;;
43114;SDS011;28727;50.068;14.452;2023-08-06T02:02:43;633.88;;;574.58;;
43114;SDS011;28727;50.068;14.452;2023-08-06T02:05:19;633.00;;;574.03;;
43114;SDS011;28727;50.068;14.452;2023-08-06T02:07:51;630.78;;;571.65;;
43114;SDS011;28727;50.068;14.452;2023-08-06T02:10:28;632.90;;;573.88;;
43114;SDS011;28727;50.068;14.452;2023-08-06T02:13:00;642.55;;;582.90;;
43114;SDS011;28727;50.068;14.452;2023-08-06T02:15:32;642.15;;;582.60;;
43114;SDS011;28727;50.068;14.452;2023-08-06T02:18:04;638.83;;;579.53;;
43114;SDS011;28727;50.068;14.452;2023-08-06T02:20:38;634.60;;;575.35;;
43114;SDS011;28727;50.068;14.452;2023-08-06T02:23:09;636.78;;;577.50;;
43114;SDS011;28727;50.068;14.452;2023-08-06T02:25:41;642.70;;;583.28;;
43114;SDS011;28727;50.068;14.452;2023-08-06T02:28:13;638.97;;;579.58;;
43114;SDS011;28727;50.068;14.452;2023-08-06T02:30:51;634.95;;;575.90;;
43114;SDS011;28727;50.068;14.452;2023-08-06T02:33:23;636.38;;;577.35;;
43114;SDS011;28727;50.068;14.452;2023-08-06T02:35:58;634.72;;;575.45;;
43114;SDS011;28727;50.068;14.452;2023-08-06T02:38:32;638.60;;;579.55;;
43114;SDS011;28727;50.068;14.452;2023-08-06T02:41:04;638.05;;;578.67;;
43114;SDS011;28727;50.068;14.452;2023-08-06T02:43:36;640.38;;;581.05;;
43114;SDS011;28727;50.068;14.452;2023-08-06T02:46:09;644.28;;;584.85;;
43114;SDS011;28727;50.068;14.452;2023-08-06T02:48:41;633.22;;;574.35;;
43114;SDS011;28727;50.068;14.452;2023-08-06T02:51:13;642.00;;;582.55;;
43114;SDS011;28727;50.068;14.452;2023-08-06T02:53:47;631.47;;;572.60;;
43114;SDS011;28727;50.068;14.452;2023-08-06T02:56:21;639.28;;;579.78;;
43114;SDS011;28727;50.068;14.452;2023-08-06T02:59:13;636.97;;;577.78;;
43114;SDS011;28727;50.068;14.452;2023-08-06T03:02:08;640.47;;;580.72;;
43114;SDS011;28727;50.068;14.452;2023-08-06T03:05:03;630.45;;;571.75;;
43114;SDS011;28727;50.068;14.452;2023-08-06T03:07:39;636.53;;;577.38;;
43114;SDS011;28727;50.068;14.452;2023-08-06T03:10:18;642.30;;;582.75;;
43114;SDS011;28727;50.068;14.452;2023-08-06T03:12:51;642.83;;;583.30;;
43114;SDS011;28727;50.068;14.452;2023-08-06T03:15:23;639.63;;;580.28;;
43114;SDS011;28727;50.068;14.452;2023-08-06T03:17:57;639.80;;;580.15;;
43114;SDS011;28727;50.068;14.452;2023-08-06T03:20:29;637.67;;;578.55;;
43114;SDS011;28727;50.068;14.452;2023-08-06T03:23:01;640.05;;;580.80;;
43114;SDS011;28727;50.068;14.452;2023-08-06T03:25:35;634.87;;;575.67;;
43114;SDS011;28727;50.068;14.452;2023-08-06T03:28:11;640.67;;;581.30;;
43114;SDS011;28727;50.068;14.452;2023-08-06T03:30:46;638.42;;;579.10;;
43114;SDS011;28727;50.068;14.452;2023-08-06T03:33:18;639.45;;;579.95;;
43114;SDS011;28727;50.068;14.452;2023-08-06T03:35:50;637.67;;;578.13;;
43114;SDS011;28727;50.068;14.452;2023-08-06T03:38:24;632.85;;;573.45;;
43114;SDS011;28727;50.068;14.452;2023-08-06T03:40:57;636.93;;;577.63;;
43114;SDS011;28727;50.068;14.452;2023-08-06T03:43:30;637.05;;;577.45;;
43114;SDS011;28727;50.068;14.452;2023-08-06T03:46:02;640.88;;;581.45;;
43114;SDS011;28727;50.068;14.452;2023-08-06T03:48:34;641.42;;;581.72;;
43114;SDS011;28727;50.068;14.452;2023-08-06T03:51:06;646.10;;;586.38;;
43114;SDS011;28727;50.068;14.452;2023-08-06T03:53:38;155.02;;;141.32;;
43114;SDS011;28727;50.068;14.452;2023-08-06T03:56:10;159.48;;;145.25;;
43114;SDS011;28727;50.068;14.452;2023-08-06T03:58:43;158.13;;;143.70;;
43114;SDS011;28727;50.068;14.452;2023-08-06T04:01:15;155.75;;;142.27;;
43114;SDS011;28727;50.068;14.452;2023-08-06T04:03:49;155.73;;;141.73;;
43114;SDS011;28727;50.068;14.452;2023-08-06T04:06:21;154.30;;;140.60;;
43114;SDS011;28727;50.068;14.452;2023-08-06T04:08:56;153.75;;;140.10;;
43114;SDS011;28727;50.068;14.452;2023-08-06T04:11:28;156.95;;;142.60;;
43114;SDS011;28727;50.068;14.452;2023-08-06T04:14:03;154.48;;;140.77;;
43114;SDS011;28727;50.068;14.452;2023-08-06T04:16:35;153.80;;;140.13;;
43114;SDS011;28727;50.068;14.452;2023-08-06T04:19:07;156.13;;;142.32;;
43114;SDS011;28727;50.068;14.452;2023-08-06T04:21:39;152.88;;;139.45;;
43114;SDS011;28727;50.068;14.452;2023-08-06T04:24:11;157.88;;;143.50;;
43114;SDS011;28727;50.068;14.452;2023-08-06T04:26:43;154.18;;;140.77;;
43114;SDS011;28727;50.068;14.452;2023-08-06T04:29:16;149.13;;;135.98;;
43114;SDS011;28727;50.068;14.452;2023-08-06T04:31:48;155.07;;;141.20;;
43114;SDS011;28727;50.068;14.452;2023-08-06T04:34:23;147.77;;;134.85;;
43114;SDS011;28727;50.068;14.452;2023-08-06T04:36:55;155.48;;;141.73;;
43114;SDS011;28727;50.068;14.452;2023-08-06T04:39:27;155.50;;;142.07;;
43114;SDS011;28727;50.068;14.452;2023-08-06T04:42:00;146.90;;;133.70;;
43114;SDS011;28727;50.068;14.452;2023-08-06T04:44:33;144.88;;;132.38;;
43114;SDS011;28727;50.068;14.452;2023-08-06T04:47:05;147.55;;;134.60;;
43114;SDS011;28727;50.068;14.452;2023-08-06T04:49:37;143.95;;;131.48;;
43114;SDS011;28727;50.068;14.452;2023-08-06T04:52:09;148.80;;;135.63;;
43114;SDS011;28727;50.068;14.452;2023-08-06T04:54:43;156.48;;;142.77;;
43114;SDS011;28727;50.068;14.452;2023-08-06T04:57:15;146.27;;;133.48;;
43114;SDS011;28727;50.068;14.452;2023-08-06T04:59:48;148.73;;;135.13;;
43114;SDS011;28727;50.068;14.452;2023-08-06T05:02:20;154.48;;;140.95;;
43114;SDS011;28727;50.068;14.452;2023-08-06T05:04:52;145.82;;;132.88;;
43114;SDS011;28727;50.068;14.452;2023-08-06T05:07:24;147.27;;;134.57;;
43114;SDS011;28727;50.068;14.452;2023-08-06T05:09:57;155.20;;;141.40;;
43114;SDS011;28727;50.068;14.452;2023-08-06T05:12:29;155.30;;;141.45;;
43114;SDS011;28727;50.068;14.452;2023-08-06T05:15:00;159.05;;;145.25;;
43114;SDS011;28727;50.068;14.452;2023-08-06T05:17:35;154.80;;;141.05;;
43114;SDS011;28727;50.068;14.452;2023-08-06T05:20:07;160.95;;;146.77;;
43114;SDS011;28727;50.068;14.452;2023-08-06T05:22:39;158.80;;;144.55;;
43114;SDS011;28727;50.068;14.452;2023-08-06T05:25:12;153.07;;;139.63;;
43114;SDS011;28727;50.068;14.452;2023-08-06T05:27:46;157.73;;;143.93;;
43114;SDS011;28727;50.068;14.452;2023-08-06T05:30:22;154.98;;;141.38;;
43114;SDS011;28727;50.068;14.452;2023-08-06T05:32:55;155.02;;;141.13;;
43114;SDS011;28727;50.068;14.452;2023-08-06T05:35:27;150.13;;;136.93;;
43114;SDS011;28727;50.068;14.452;2023-08-06T05:37:59;158.00;;;143.70;;
43114;SDS011;28727;50.068;14.452;2023-08-06T05:40:32;160.68;;;146.38;;
43114;SDS011;28727;50.068;14.452;2023-08-06T05:43:05;156.55;;;142.38;;
43114;SDS011;28727;50.068;14.452;2023-08-06T05:45:37;156.82;;;142.82;;
43114;SDS011;28727;50.068;14.452;2023-08-06T05:48:09;154.77;;;141.05;;
43114;SDS011;28727;50.068;14.452;2023-08-06T05:50:40;157.60;;;143.80;;
43114;SDS011;28727;50.068;14.452;2023-08-06T05:53:14;156.75;;;142.77;;
43114;SDS011;28727;50.068;14.452;2023-08-06T05:55:45;153.85;;;140.50;;
43114;SDS011;28727;50.068;14.452;2023-08-06T05:58:17;151.65;;;138.10;;
43114;SDS011;28727;50.068;14.452;2023-08-06T06:00:51;161.57;;;147.00;;
43114;SDS011;28727;50.068;14.452;2023-08-06T06:03:24;157.85;;;143.65;;
43114;SDS011;28727;50.068;14.452;2023-08-06T06:05:56;162.75;;;148.15;;
43114;SDS011;28727;50.068;14.452;2023-08-06T06:08:28;171.48;;;155.63;;
43114;SDS011;28727;50.068;14.452;2023-08-06T06:11:00;165.50;;;150.60;;
43114;SDS011;28727;50.068;14.452;2023-08-06T06:13:32;163.90;;;148.82;;
43114;SDS011;28727;50.068;14.452;2023-08-06T06:16:03;149.30;;;136.25;;
43114;SDS011;28727;50.068;14.452;2023-08-06T06:18:36;163.27;;;148.27;;
43114;SDS011;28727;50.068;14.452;2023-08-06T06:21:09;167.02;;;151.95;;
43114;SDS011;28727;50.068;14.452;2023-08-06T06:23:41;169.38;;;153.73;;
43114;SDS011;28727;50.068;14.452;2023-08-06T06:26:14;167.60;;;152.23;;
43114;SDS011;28727;50.068;14.452;2023-08-06T06:28:46;159.65;;;145.18;;
43114;SDS011;28727;50.068;14.452;2023-08-06T06:31:19;171.60;;;155.75;;
43114;SDS011;28727;50.068;14.452;2023-08-06T06:33:50;172.95;;;156.65;;
43114;SDS011;28727;50.068;14.452;2023-08-06T06:36:24;164.60;;;149.63;;
43114;SDS011;28727;50.068;14.452;2023-08-06T06:38:56;166.02;;;150.93;;
43114;SDS011;28727;50.068;14.452;2023-08-06T06:41:28;171.43;;;155.77;;
43114;SDS011;28727;50.068;14.452;2023-08-06T06:44:09;174.45;;;158.70;;
43114;SDS011;28727;50.068;14.452;2023-08-06T06:46:41;169.38;;;154.15;;
43114;SDS011;28727;50.068;14.452;2023-08-06T06:49:13;166.25;;;151.23;;
43114;SDS011;28727;50.068;14.452;2023-08-06T06:51:45;170.13;;;154.43;;
43114;SDS011;28727;50.068;14.452;2023-08-06T06:54:16;173.73;;;157.77;;
43114;SDS011;28727;50.068;14.452;2023-08-06T06:56:48;164.68;;;149.60;;
43114;SDS011;28727;50.068;14.452;2023-08-06T06:59:20;164.90;;;149.70;;
43114;SDS011;28727;50.068;14.452;2023-08-06T07:01:52;171.45;;;155.80;;
43114;SDS011;28727;50.068;14.452;2023-08-06T07:04:24;171.95;;;156.40;;
43114;SDS011;28727;50.068;14.452;2023-08-06T07:06:56;168.90;;;153.60;;
43114;SDS011;28727;50.068;14.452;2023-08-06T07:09:27;171.25;;;155.80;;
43114;SDS011;28727;50.068;14.452;2023-08-06T07:11:59;173.90;;;158.05;;
43114;SDS011;28727;50.068;14.452;2023-08-06T07:14:32;171.13;;;155.73;;
43114;SDS011;28727;50.068;14.452;2023-08-06T07:17:04;179.25;;;163.10;;
43114;SDS011;28727;50.068;14.452;2023-08-06T07:19:36;164.80;;;149.68;;
43114;SDS011;28727;50.068;14.452;2023-08-06T07:22:08;172.45;;;156.80;;
43114;SDS011;28727;50.068;14.452;2023-08-06T07:24:40;172.10;;;155.93;;
43114;SDS011;28727;50.068;14.452;2023-08-06T07:27:12;176.00;;;159.98;;
43114;SDS011;28727;50.068;14.452;2023-08-06T07:29:44;176.07;;;159.98;;
43114;SDS011;28727;50.068;14.452;2023-08-06T07:32:15;177.85;;;161.55;;
43114;SDS011;28727;50.068;14.452;2023-08-06T07:34:47;183.60;;;167.18;;
43114;SDS011;28727;50.068;14.452;2023-08-06T07:37:19;177.93;;;161.90;;
43114;SDS011;28727;50.068;14.452;2023-08-06T07:39:51;180.10;;;163.68;;
43114;SDS011;28727;50.068;14.452;2023-08-06T07:42:23;184.10;;;167.20;;
43114;SDS011;28727;50.068;14.452;2023-08-06T07:44:55;179.52;;;162.68;;
43114;SDS011;28727;50.068;14.452;2023-08-06T07:47:28;180.70;;;164.05;;
43114;SDS011;28727;50.068;14.452;2023-08-06T07:50:00;184.82;;;167.40;;
43114;SDS011;28727;50.068;14.452;2023-08-06T07:52:32;187.77;;;170.60;;
43114;SDS011;28727;50.068;14.452;2023-08-06T07:55:04;183.32;;;166.20;;
43114;SDS011;28727;50.068;14.452;2023-08-06T07:57:36;178.27;;;161.90;;
43114;SDS011;28727;50.068;14.452;2023-08-06T08:00:09;185.55;;;168.60;;
43114;SDS011;28727;50.068;14.452;2023-08-06T08:02:45;184.60;;;167.00;;
43114;SDS011;28727;50.068;14.452;2023-08-06T08:05:18;181.02;;;164.23;;
43114;SDS011;28727;50.068;14.452;2023-08-06T08:07:52;182.00;;;165.30;;
43114;SDS011;28727;50.068;14.452;2023-08-06T08:10:24;185.55;;;168.63;;
43114;SDS011;28727;50.068;14.452;2023-08-06T08:12:56;181.73;;;164.90;;
43114;SDS011;28727;50.068;14.452;2023-08-06T08:18:02;180.15;;;163.68;;
43114;SDS011;28727;50.068;14.452;2023-08-06T08:20:36;189.40;;;171.88;;
43114;SDS011;28727;50.068;14.452;2023-08-06T08:23:08;180.25;;;163.82;;
43114;SDS011;28727;50.068;14.452;2023-08-06T08:25:39;186.43;;;169.05;;
43114;SDS011;28727;50.068;14.452;2023-08-06T08:30:45;186.95;;;169.90;;
43114;SDS011;28727;50.068;14.452;2023-08-06T08:33:17;182.45;;;165.63;;
43114;SDS011;28727;50.068;14.452;2023-08-06T08:35:49;189.25;;;171.70;;
43114;SDS011;28727;50.068;14.452;2023-08-06T08:38:22;187.57;;;170.20;;
43114;SDS011;28727;50.068;14.452;2023-08-06T08:40:56;183.20;;;166.40;;
43114;SDS011;28727;50.068;14.452;2023-08-06T08:43:35;184.52;;;168.05;;
43114;SDS011;28727;50.068;14.452;2023-08-06T08:46:07;182.32;;;165.75;;
43114;SDS011;28727;50.068;14.452;2023-08-06T08:48:42;176.50;;;160.40;;
43114;SDS011;28727;50.068;14.452;2023-08-06T08:51:15;182.35;;;165.60;;
43114;SDS011;28727;50.068;14.452;2023-08-06T08:53:48;188.15;;;171.00;;
43114;SDS011;28727;50.068;14.452;2023-08-06T08:56:24;180.88;;;164.48;;
43114;SDS011;28727;50.068;14.452;2023-08-06T08:58:56;180.20;;;163.82;;
43114;SDS011;28727;50.068;14.452;2023-08-06T09:01:28;174.55;;;158.70;;
43114;SDS011;28727;50.068;14.452;2023-08-06T09:04:00;174.23;;;158.15;;
43114;SDS011;28727;50.068;14.452;2023-08-06T09:06:33;174.32;;;158.63;;
43114;SDS011;28727;50.068;14.452;2023-08-06T09:09:11;176.90;;;160.55;;
43114;SDS011;28727;50.068;14.452;2023-08-06T09:11:45;176.98;;;160.82;;
43114;SDS011;28727;50.068;14.452;2023-08-06T09:14:17;183.63;;;166.85;;
43114;SDS011;28727;50.068;14.452;2023-08-06T09:16:52;185.55;;;168.57;;
43114;SDS011;28727;50.068;14.452;2023-08-06T09:19:24;172.82;;;157.02;;
43114;SDS011;28727;50.068;14.452;2023-08-06T09:21:56;182.98;;;166.20;;
43114;SDS011;28727;50.068;14.452;2023-08-06T09:24:28;178.07;;;161.85;;
43114;SDS011;28727;50.068;14.452;2023-08-06T09:27:00;176.77;;;160.68;;
43114;SDS011;28727;50.068;14.452;2023-08-06T09:29:45;171.77;;;156.05;;
43114;SDS011;28727;50.068;14.452;2023-08-06T09:32:17;184.90;;;167.90;;
43114;SDS011;28727;50.068;14.452;2023-08-06T09:34:54;173.07;;;157.18;;
43114;SDS011;28727;50.068;14.452;2023-08-06T09:37:35;174.02;;;157.95;;
43114;SDS011;28727;50.068;14.452;2023-08-06T09:43:01;178.82;;;162.88;;
43114;SDS011;28727;50.068;14.452;2023-08-06T09:45:37;167.80;;;152.75;;
43114;SDS011;28727;50.068;14.452;2023-08-06T09:48:09;179.52;;;163.23;;
43114;SDS011;28727;50.068;14.452;2023-08-06T09:50:42;178.85;;;162.75;;
43114;SDS011;28727;50.068;14.452;2023-08-06T09:53:19;179.60;;;163.10;;
43114;SDS011;28727;50.068;14.452;2023-08-06T09:55:51;177.80;;;161.63;;
43114;SDS011;28727;50.068;14.452;2023-08-06T09:58:23;176.98;;;160.95;;
43114;SDS011;28727;50.068;14.452;2023-08-06T10:00:56;174.20;;;158.40;;
43114;SDS011;28727;50.068;14.452;2023-08-06T10:03:28;171.50;;;155.55;;
43114;SDS011;28727;50.068;14.452;2023-08-06T10:06:01;173.43;;;157.60;;
43114;SDS011;28727;50.068;14.452;2023-08-06T10:08:38;167.48;;;151.95;;
43114;SDS011;28727;50.068;14.452;2023-08-06T10:11:12;171.63;;;155.68;;
43114;SDS011;28727;50.068;14.452;2023-08-06T10:13:46;184.68;;;168.18;;
43114;SDS011;28727;50.068;14.452;2023-08-06T10:16:18;178.30;;;161.93;;
43114;SDS011;28727;50.068;14.452;2023-08-06T10:18:52;174.43;;;158.43;;
43114;SDS011;28727;50.068;14.452;2023-08-06T10:21:26;181.43;;;165.10;;
43114;SDS011;28727;50.068;14.452;2023-08-06T10:23:59;183.57;;;167.13;;
43114;SDS011;28727;50.068;14.452;2023-08-06T10:26:36;173.23;;;157.20;;
43114;SDS011;28727;50.068;14.452;2023-08-06T10:32:09;176.88;;;160.65;;
43114;SDS011;28727;50.068;14.452;2023-08-06T10:43:37;184.27;;;167.70;;
43114;SDS011;28727;50.068;14.452;2023-08-06T10:46:22;179.63;;;163.10;;
43114;SDS011;28727;50.068;14.452;2023-08-06T10:48:58;185.68;;;168.93;;
43114;SDS011;28727;50.068;14.452;2023-08-06T10:51:30;193.10;;;175.45;;
43114;SDS011;28727;50.068;14.452;2023-08-06T10:54:04;187.55;;;170.30;;
43114;SDS011;28727;50.068;14.452;2023-08-06T10:56:39;184.93;;;167.88;;
43114;SDS011;28727;50.068;14.452;2023-08-06T10:59:14;189.18;;;171.63;;
43114;SDS011;28727;50.068;14.452;2023-08-06T11:01:47;186.90;;;169.70;;
43114;SDS011;28727;50.068;14.452;2023-08-06T11:04:19;191.93;;;174.02;;
43114;SDS011;28727;50.068;14.452;2023-08-06T11:06:52;189.38;;;171.90;;
43114;SDS011;28727;50.068;14.452;2023-08-06T11:09:24;183.40;;;167.00;;
43114;SDS011;28727;50.068;14.452;2023-08-06T11:11:58;180.05;;;163.13;;
43114;SDS011;28727;50.068;14.452;2023-08-06T11:14:30;182.10;;;165.45;;
43114;SDS011;28727;50.068;14.452;2023-08-06T11:17:02;191.20;;;173.73;;
43114;SDS011;28727;50.068;14.452;2023-08-06T11:19:34;190.68;;;173.32;;
43114;SDS011;28727;50.068;14.452;2023-08-06T11:22:06;181.93;;;165.48;;
43114;SDS011;28727;50.068;14.452;2023-08-06T11:24:38;183.27;;;166.45;;
43114;SDS011;28727;50.068;14.452;2023-08-06T11:27:13;186.27;;;169.35;;
43114;SDS011;28727;50.068;14.452;2023-08-06T11:29:45;186.85;;;169.68;;
43114;SDS011;28727;50.068;14.452;2023-08-06T11:32:17;191.35;;;173.95;;
43114;SDS011;28727;50.068;14.452;2023-08-06T11:34:49;189.63;;;172.00;;
43114;SDS011;28727;50.068;14.452;2023-08-06T11:37:22;187.07;;;170.07;;
43114;SDS011;28727;50.068;14.452;2023-08-06T11:39:56;187.80;;;170.55;;
43114;SDS011;28727;50.068;14.452;2023-08-06T11:42:31;187.05;;;169.75;;
43114;SDS011;28727;50.068;14.452;2023-08-06T11:45:04;182.77;;;165.68;;
43114;SDS011;28727;50.068;14.452;2023-08-06T11:47:39;191.02;;;173.43;;
43114;SDS011;28727;50.068;14.452;2023-08-06T11:50:21;182.18;;;165.20;;
43114;SDS011;28727;50.068;14.452;2023-08-06T11:52:58;183.50;;;166.32;;
43114;SDS011;28727;50.068;14.452;2023-08-06T11:55:35;181.88;;;165.40;;
43114;SDS011;28727;50.068;14.452;2023-08-06T11:58:07;185.18;;;168.55;;
43114;SDS011;28727;50.068;14.452;2023-08-06T12:00:39;188.95;;;171.43;;
43114;SDS011;28727;50.068;14.452;2023-08-06T12:03:10;185.23;;;168.25;;
43114;SDS011;28727;50.068;14.452;2023-08-06T12:05:42;176.95;;;160.98;;
43114;SDS011;28727;50.068;14.452;2023-08-06T12:08:18;184.95;;;168.02;;
43114;SDS011;28727;50.068;14.452;2023-08-06T12:10:50;180.07;;;163.52;;
43114;SDS011;28727;50.068;14.452;2023-08-06T12:13:22;190.18;;;172.82;;
43114;SDS011;28727;50.068;14.452;2023-08-06T12:15:54;186.98;;;169.52;;
43114;SDS011;28727;50.068;14.452;2023-08-06T12:18:26;194.48;;;176.63;;
43114;SDS011;28727;50.068;14.452;2023-08-06T12:20:58;188.35;;;170.57;;
43114;SDS011;28727;50.068;14.452;2023-08-06T12:23:30;178.60;;;161.93;;
43114;SDS011;28727;50.068;14.452;2023-08-06T12:26:04;193.98;;;176.05;;
43114;SDS011;28727;50.068;14.452;2023-08-06T12:28:36;186.77;;;169.55;;
43114;SDS011;28727;50.068;14.452;2023-08-06T12:31:08;190.32;;;172.82;;
43114;SDS011;28727;50.068;14.452;2023-08-06T12:33:40;199.02;;;180.70;;
43114;SDS011;28727;50.068;14.452;2023-08-06T12:36:11;204.25;;;185.32;;
43114;SDS011;28727;50.068;14.452;2023-08-06T12:38:43;193.80;;;175.50;;
43114;SDS011;28727;50.068;14.452;2023-08-06T12:41:15;199.93;;;181.32;;
43114;SDS011;28727;50.068;14.452;2023-08-06T12:43:49;203.82;;;185.07;;
43114;SDS011;28727;50.068;14.452;2023-08-06T12:46:21;192.55;;;174.70;;
43114;SDS011;28727;50.068;14.452;2023-08-06T12:48:53;197.93;;;179.35;;
43114;SDS011;28727;50.068;14.452;2023-08-06T12:51:25;191.48;;;173.43;;
43114;SDS011;28727;50.068;14.452;2023-08-06T12:54:00;203.95;;;184.98;;
43114;SDS011;28727;50.068;14.452;2023-08-06T12:56:32;194.82;;;176.73;;
43114;SDS011;28727;50.068;14.452;2023-08-06T12:59:04;200.27;;;181.57;;
43114;SDS011;28727;50.068;14.452;2023-08-06T13:01:36;202.55;;;183.77;;
43114;SDS011;28727;50.068;14.452;2023-08-06T13:04:13;198.00;;;179.35;;
43114;SDS011;28727;50.068;14.452;2023-08-06T13:06:53;206.60;;;187.40;;
43114;SDS011;28727;50.068;14.452;2023-08-06T13:09:24;202.40;;;183.70;;
43114;SDS011;28727;50.068;14.452;2023-08-06T13:11:59;207.80;;;188.50;;
43114;SDS011;28727;50.068;14.452;2023-08-06T13:14:31;203.60;;;184.52;;
43114;SDS011;28727;50.068;14.452;2023-08-06T13:17:03;197.65;;;179.13;;
43114;SDS011;28727;50.068;14.452;2023-08-06T13:19:38;203.52;;;184.70;;
43114;SDS011;28727;50.068;14.452;2023-08-06T13:22:13;201.73;;;182.98;;
43114;SDS011;28727;50.068;14.452;2023-08-06T13:24:44;211.77;;;192.05;;
43114;SDS011;28727;50.068;14.452;2023-08-06T13:27:16;210.02;;;190.57;;
43114;SDS011;28727;50.068;14.452;2023-08-06T13:29:48;208.85;;;189.10;;
43114;SDS011;28727;50.068;14.452;2023-08-06T13:32:20;222.32;;;201.88;;
43114;SDS011;28727;50.068;14.452;2023-08-06T13:34:54;208.18;;;188.55;;
43114;SDS011;28727;50.068;14.452;2023-08-06T13:37:25;204.48;;;185.73;;
43114;SDS011;28727;50.068;14.452;2023-08-06T13:39:57;219.65;;;199.20;;
43114;SDS011;28727;50.068;14.452;2023-08-06T13:42:29;212.15;;;192.40;;
43114;SDS011;28727;50.068;14.452;2023-08-06T13:45:03;228.48;;;207.00;;
43114;SDS011;28727;50.068;14.452;2023-08-06T13:47:36;211.13;;;191.15;;
43114;SDS011;28727;50.068;14.452;2023-08-06T13:50:08;213.90;;;193.70;;
43114;SDS011;28727;50.068;14.452;2023-08-06T13:52:43;213.85;;;193.98;;
43114;SDS011;28727;50.068;14.452;2023-08-06T13:55:15;210.10;;;190.23;;
43114;SDS011;28727;50.068;14.452;2023-08-06T13:57:47;225.15;;;204.50;;
43114;SDS011;28727;50.068;14.452;2023-08-06T14:00:19;208.32;;;188.95;;
43114;SDS011;28727;50.068;14.452;2023-08-06T14:02:52;218.52;;;198.02;;
43114;SDS011;28727;50.068;14.452;2023-08-06T14:05:24;213.23;;;193.05;;
43114;SDS011;28727;50.068;14.452;2023-08-06T14:07:56;209.10;;;189.77;;
43114;SDS011;28727;50.068;14.452;2023-08-06T14:10:29;220.80;;;200.55;;
43114;SDS011;28727;50.068;14.452;2023-08-06T14:13:01;224.98;;;204.18;;
43114;SDS011;28727;50.068;14.452;2023-08-06T14:15:41;221.15;;;200.30;;
43114;SDS011;28727;50.068;14.452;2023-08-06T14:18:13;226.80;;;205.38;;
43114;SDS011;28727;50.068;14.452;2023-08-06T14:20:46;215.40;;;195.25;;
43114;SDS011;28727;50.068;14.452;2023-08-06T14:23:18;212.80;;;192.63;;
43114;SDS011;28727;50.068;14.452;2023-08-06T14:25:55;212.82;;;192.68;;
43114;SDS011;28727;50.068;14.452;2023-08-06T14:28:26;216.40;;;196.55;;
43114;SDS011;28727;50.068;14.452;2023-08-06T14:30:58;216.73;;;196.48;;
43114;SDS011;28727;50.068;14.452;2023-08-06T14:33:30;216.82;;;196.65;;
43114;SDS011;28727;50.068;14.452;2023-08-06T14:36:02;217.02;;;196.70;;
43114;SDS011;28727;50.068;14.452;2023-08-06T14:38:34;221.20;;;200.30;;
43114;SDS011;28727;50.068;14.452;2023-08-06T14:41:24;225.35;;;204.52;;
43114;SDS011;28727;50.068;14.452;2023-08-06T14:43:56;214.75;;;194.63;;
43114;SDS011;28727;50.068;14.452;2023-08-06T14:46:28;228.35;;;206.90;;